sensor_id;sensor_type;location;lat;lon;timestamp;P1;durP1;ratioP1;P2;durP2;ratioP2
1545;SDS011;766;51.502;9.752;2023-05-02T00:00:10;3.47;;;2.10;;
1545;SDS011;766;51.502;9.752;2023-05-02T00:02:39;2.67;;;2.20;;
1545;SDS011;766;51.502;9.752;2023-05-02T00:05:09;3.92;;;2.15;;
1545;SDS011;766;51.502;9.752;2023-05-02T00:07:39;3.97;;;2.20;;
1545;SDS011;766;51.502;9.752;2023-05-02T00:10:07;5.05;;;2.00;;
1545;SDS011;766;51.502;9.752;2023-05-02T00:12:36;5.60;;;2.15;;
1545;SDS011;766;51.502;9.752;2023-05-02T00:15:05;3.53;;;2.75;;
1545;SDS011;766;51.502;9.752;2023-05-02T00:17:35;3.92;;;2.30;;
1545;SDS011;766;51.502;9.752;2023-05-02T00:20:04;2.88;;;2.10;;
1545;SDS011;766;51.502;9.752;2023-05-02T00:22:34;3.33;;;2.40;;
1545;SDS011;766;51.502;9.752;2023-05-02T00:25:05;2.58;;;2.22;;
1545;SDS011;766;51.502;9.752;2023-05-02T00:27:34;3.38;;;2.50;;
1545;SDS011;766;51.502;9.752;2023-05-02T00:30:06;5.07;;;2.28;;
1545;SDS011;766;51.502;9.752;2023-05-02T00:32:35;2.67;;;2.47;;
1545;SDS011;766;51.502;9.752;2023-05-02T00:35:04;3.08;;;2.53;;
1545;SDS011;766;51.502;9.752;2023-05-02T00:37:34;6.03;;;2.42;;
1545;SDS011;766;51.502;9.752;2023-05-02T00:40:05;4.40;;;2.72;;
1545;SDS011;766;51.502;9.752;2023-05-02T00:42:34;2.95;;;2.33;;
1545;SDS011;766;51.502;9.752;2023-05-02T00:45:03;2.70;;;2.40;;
1545;SDS011;766;51.502;9.752;2023-05-02T00:47:32;5.05;;;2.63;;
1545;SDS011;766;51.502;9.752;2023-05-02T00:50:01;4.40;;;2.63;;
1545;SDS011;766;51.502;9.752;2023-05-02T00:52:31;2.83;;;2.53;;
1545;SDS011;766;51.502;9.752;2023-05-02T00:55:00;4.50;;;2.63;;
1545;SDS011;766;51.502;9.752;2023-05-02T00:57:30;2.78;;;2.47;;
1545;SDS011;766;51.502;9.752;2023-05-02T01:00:00;3.45;;;2.38;;
1545;SDS011;766;51.502;9.752;2023-05-02T01:02:31;3.28;;;2.38;;
1545;SDS011;766;51.502;9.752;2023-05-02T01:05:09;4.28;;;2.50;;
1545;SDS011;766;51.502;9.752;2023-05-02T01:07:45;2.88;;;2.58;;
1545;SDS011;766;51.502;9.752;2023-05-02T01:10:27;3.05;;;2.25;;
1545;SDS011;766;51.502;9.752;2023-05-02T01:13:06;3.88;;;2.10;;
1545;SDS011;766;51.502;9.752;2023-05-02T01:15:37;4.47;;;2.33;;
1545;SDS011;766;51.502;9.752;2023-05-02T01:18:08;2.92;;;2.38;;
1545;SDS011;766;51.502;9.752;2023-05-02T01:20:39;3.97;;;2.33;;
1545;SDS011;766;51.502;9.752;2023-05-02T01:23:13;5.15;;;2.50;;
1545;SDS011;766;51.502;9.752;2023-05-02T01:25:54;4.43;;;2.45;;
1545;SDS011;766;51.502;9.752;2023-05-02T01:31:15;5.78;;;2.55;;
1545;SDS011;766;51.502;9.752;2023-05-02T01:33:44;2.85;;;2.22;;
1545;SDS011;766;51.502;9.752;2023-05-02T01:36:17;3.08;;;2.75;;
1545;SDS011;766;51.502;9.752;2023-05-02T01:38:47;7.47;;;2.75;;
1545;SDS011;766;51.502;9.752;2023-05-02T01:41:17;2.83;;;2.40;;
1545;SDS011;766;51.502;9.752;2023-05-02T01:43:48;4.75;;;2.67;;
1545;SDS011;766;51.502;9.752;2023-05-02T01:46:17;2.97;;;2.53;;
1545;SDS011;766;51.502;9.752;2023-05-02T01:48:46;3.08;;;2.65;;
1545;SDS011;766;51.502;9.752;2023-05-02T01:51:18;3.30;;;2.65;;
1545;SDS011;766;51.502;9.752;2023-05-02T01:53:49;4.78;;;2.90;;
1545;SDS011;766;51.502;9.752;2023-05-02T01:56:18;3.60;;;2.78;;
1545;SDS011;766;51.502;9.752;2023-05-02T01:58:52;3.45;;;2.20;;
1545;SDS011;766;51.502;9.752;2023-05-02T02:01:23;3.58;;;2.47;;
1545;SDS011;766;51.502;9.752;2023-05-02T02:03:56;4.22;;;2.70;;
1545;SDS011;766;51.502;9.752;2023-05-02T02:06:27;2.60;;;2.35;;
1545;SDS011;766;51.502;9.752;2023-05-02T02:08:55;3.17;;;2.83;;
1545;SDS011;766;51.502;9.752;2023-05-02T02:11:34;4.20;;;3.20;;
1545;SDS011;766;51.502;9.752;2023-05-02T02:14:11;3.45;;;3.15;;
1545;SDS011;766;51.502;9.752;2023-05-02T02:16:45;5.95;;;4.15;;
1545;SDS011;766;51.502;9.752;2023-05-02T02:19:14;6.47;;;3.97;;
1545;SDS011;766;51.502;9.752;2023-05-02T02:21:44;5.00;;;3.67;;
1545;SDS011;766;51.502;9.752;2023-05-02T02:24:15;4.03;;;3.33;;
1545;SDS011;766;51.502;9.752;2023-05-02T02:26:48;7.38;;;3.40;;
1545;SDS011;766;51.502;9.752;2023-05-02T02:29:18;5.00;;;3.70;;
1545;SDS011;766;51.502;9.752;2023-05-02T02:31:47;8.15;;;4.43;;
1545;SDS011;766;51.502;9.752;2023-05-02T02:34:15;7.45;;;4.70;;
1545;SDS011;766;51.502;9.752;2023-05-02T02:36:44;6.10;;;4.95;;
1545;SDS011;766;51.502;9.752;2023-05-02T02:39:17;8.23;;;6.43;;
1545;SDS011;766;51.502;9.752;2023-05-02T02:41:54;8.10;;;7.28;;
1545;SDS011;766;51.502;9.752;2023-05-02T02:44:33;10.45;;;7.22;;
1545;SDS011;766;51.502;9.752;2023-05-02T02:47:10;8.27;;;7.03;;
1545;SDS011;766;51.502;9.752;2023-05-02T02:49:47;7.90;;;7.10;;
1545;SDS011;766;51.502;9.752;2023-05-02T02:52:20;9.40;;;7.25;;
1545;SDS011;766;51.502;9.752;2023-05-02T02:54:55;9.82;;;7.68;;
1545;SDS011;766;51.502;9.752;2023-05-02T02:57:28;11.05;;;8.07;;
1545;SDS011;766;51.502;9.752;2023-05-02T03:00:06;8.98;;;7.32;;
1545;SDS011;766;51.502;9.752;2023-05-02T03:02:45;10.63;;;8.00;;
1545;SDS011;766;51.502;9.752;2023-05-02T03:05:15;8.45;;;7.60;;
1545;SDS011;766;51.502;9.752;2023-05-02T03:07:44;10.00;;;7.95;;
1545;SDS011;766;51.502;9.752;2023-05-02T03:10:13;10.20;;;8.13;;
1545;SDS011;766;51.502;9.752;2023-05-02T03:12:42;12.65;;;9.07;;
1545;SDS011;766;51.502;9.752;2023-05-02T03:15:21;10.02;;;8.73;;
1545;SDS011;766;51.502;9.752;2023-05-02T03:18:03;9.60;;;7.95;;
1545;SDS011;766;51.502;9.752;2023-05-02T03:20:31;9.38;;;8.25;;
1545;SDS011;766;51.502;9.752;2023-05-02T03:23:00;10.85;;;8.68;;
1545;SDS011;766;51.502;9.752;2023-05-02T03:25:29;9.65;;;8.55;;
1545;SDS011;766;51.502;9.752;2023-05-02T03:27:57;10.30;;;8.30;;
1545;SDS011;766;51.502;9.752;2023-05-02T03:30:27;11.25;;;8.68;;
1545;SDS011;766;51.502;9.752;2023-05-02T03:32:55;8.27;;;7.32;;
1545;SDS011;766;51.502;9.752;2023-05-02T03:35:26;9.30;;;7.72;;
1545;SDS011;766;51.502;9.752;2023-05-02T03:37:54;10.80;;;8.40;;
1545;SDS011;766;51.502;9.752;2023-05-02T03:40:23;11.10;;;7.97;;
1545;SDS011;766;51.502;9.752;2023-05-02T03:42:51;10.63;;;8.88;;
1545;SDS011;766;51.502;9.752;2023-05-02T03:45:20;9.45;;;8.30;;
1545;SDS011;766;51.502;9.752;2023-05-02T03:47:50;10.82;;;8.85;;
1545;SDS011;766;51.502;9.752;2023-05-02T03:50:18;11.20;;;9.45;;
1545;SDS011;766;51.502;9.752;2023-05-02T03:52:46;11.88;;;9.55;;
1545;SDS011;766;51.502;9.752;2023-05-02T03:55:15;11.90;;;9.63;;
1545;SDS011;766;51.502;9.752;2023-05-02T03:57:43;12.40;;;9.95;;
1545;SDS011;766;51.502;9.752;2023-05-02T04:00:12;12.82;;;9.60;;
1545;SDS011;766;51.502;9.752;2023-05-02T04:02:41;12.27;;;10.07;;
1545;SDS011;766;51.502;9.752;2023-05-02T04:05:11;12.68;;;10.70;;
1545;SDS011;766;51.502;9.752;2023-05-02T04:07:39;12.20;;;10.68;;
1545;SDS011;766;51.502;9.752;2023-05-02T04:10:08;13.10;;;10.50;;
1545;SDS011;766;51.502;9.752;2023-05-02T04:12:42;14.77;;;11.25;;
1545;SDS011;766;51.502;9.752;2023-05-02T04:15:10;11.73;;;10.52;;
1545;SDS011;766;51.502;9.752;2023-05-02T04:17:38;13.30;;;10.70;;
1545;SDS011;766;51.502;9.752;2023-05-02T04:20:07;13.02;;;10.55;;
1545;SDS011;766;51.502;9.752;2023-05-02T04:22:37;14.23;;;10.40;;
1545;SDS011;766;51.502;9.752;2023-05-02T04:25:06;13.25;;;10.48;;
1545;SDS011;766;51.502;9.752;2023-05-02T04:27:35;13.88;;;11.48;;
1545;SDS011;766;51.502;9.752;2023-05-02T04:30:04;16.75;;;11.50;;
1545;SDS011;766;51.502;9.752;2023-05-02T04:32:35;12.98;;;11.27;;
1545;SDS011;766;51.502;9.752;2023-05-02T04:35:03;16.08;;;11.88;;
1545;SDS011;766;51.502;9.752;2023-05-02T04:37:32;15.73;;;13.05;;
1545;SDS011;766;51.502;9.752;2023-05-02T04:40:02;17.85;;;13.48;;
1545;SDS011;766;51.502;9.752;2023-05-02T04:42:31;20.90;;;15.02;;
1545;SDS011;766;51.502;9.752;2023-05-02T04:44:59;18.30;;;15.38;;
1545;SDS011;766;51.502;9.752;2023-05-02T04:47:28;14.90;;;12.93;;
1545;SDS011;766;51.502;9.752;2023-05-02T04:49:56;17.70;;;14.30;;
1545;SDS011;766;51.502;9.752;2023-05-02T04:52:25;17.67;;;14.35;;
1545;SDS011;766;51.502;9.752;2023-05-02T04:54:53;20.40;;;16.25;;
1545;SDS011;766;51.502;9.752;2023-05-02T04:57:23;19.55;;;16.35;;
1545;SDS011;766;51.502;9.752;2023-05-02T04:59:52;22.88;;;17.88;;
1545;SDS011;766;51.502;9.752;2023-05-02T05:02:20;20.20;;;16.75;;
1545;SDS011;766;51.502;9.752;2023-05-02T05:04:49;22.45;;;18.17;;
1545;SDS011;766;51.502;9.752;2023-05-02T05:07:17;27.67;;;21.00;;
1545;SDS011;766;51.502;9.752;2023-05-02T05:09:45;24.00;;;18.38;;
1545;SDS011;766;51.502;9.752;2023-05-02T05:12:14;23.92;;;19.23;;
1545;SDS011;766;51.502;9.752;2023-05-02T05:14:44;28.90;;;21.27;;
1545;SDS011;766;51.502;9.752;2023-05-02T05:17:12;29.23;;;19.48;;
1545;SDS011;766;51.502;9.752;2023-05-02T05:19:40;27.05;;;19.20;;
1545;SDS011;766;51.502;9.752;2023-05-02T05:22:09;27.67;;;20.52;;
1545;SDS011;766;51.502;9.752;2023-05-02T05:24:37;26.27;;;19.85;;
1545;SDS011;766;51.502;9.752;2023-05-02T05:27:05;26.50;;;18.63;;
1545;SDS011;766;51.502;9.752;2023-05-02T05:29:35;25.92;;;19.55;;
1545;SDS011;766;51.502;9.752;2023-05-02T05:32:05;29.63;;;21.35;;
1545;SDS011;766;51.502;9.752;2023-05-02T05:34:34;29.42;;;21.65;;
1545;SDS011;766;51.502;9.752;2023-05-02T05:37:02;30.33;;;21.88;;
1545;SDS011;766;51.502;9.752;2023-05-02T05:39:31;30.38;;;22.88;;
1545;SDS011;766;51.502;9.752;2023-05-02T05:42:00;31.50;;;21.27;;
1545;SDS011;766;51.502;9.752;2023-05-02T05:44:29;29.42;;;22.17;;
1545;SDS011;766;51.502;9.752;2023-05-02T05:46:57;30.45;;;21.27;;
1545;SDS011;766;51.502;9.752;2023-05-02T05:49:27;25.98;;;20.45;;
1545;SDS011;766;51.502;9.752;2023-05-02T05:51:56;29.65;;;21.58;;
1545;SDS011;766;51.502;9.752;2023-05-02T05:54:25;30.40;;;20.85;;
1545;SDS011;766;51.502;9.752;2023-05-02T05:56:53;25.10;;;19.27;;
1545;SDS011;766;51.502;9.752;2023-05-02T05:59:22;26.15;;;18.73;;
1545;SDS011;766;51.502;9.752;2023-05-02T06:01:50;24.15;;;18.15;;
1545;SDS011;766;51.502;9.752;2023-05-02T06:04:19;24.25;;;18.05;;
1545;SDS011;766;51.502;9.752;2023-05-02T06:06:49;25.23;;;17.40;;
1545;SDS011;766;51.502;9.752;2023-05-02T06:09:19;27.85;;;18.98;;
1545;SDS011;766;51.502;9.752;2023-05-02T06:11:47;28.75;;;19.63;;
1545;SDS011;766;51.502;9.752;2023-05-02T06:14:15;25.50;;;18.10;;
1545;SDS011;766;51.502;9.752;2023-05-02T06:16:44;27.67;;;18.17;;
1545;SDS011;766;51.502;9.752;2023-05-02T06:19:12;27.45;;;18.70;;
1545;SDS011;766;51.502;9.752;2023-05-02T06:21:41;26.65;;;18.23;;
1545;SDS011;766;51.502;9.752;2023-05-02T06:24:11;28.50;;;19.13;;
1545;SDS011;766;51.502;9.752;2023-05-02T06:26:40;28.77;;;18.63;;
1545;SDS011;766;51.502;9.752;2023-05-02T06:29:09;24.90;;;17.67;;
1545;SDS011;766;51.502;9.752;2023-05-02T06:31:37;27.13;;;18.38;;
1545;SDS011;766;51.502;9.752;2023-05-02T06:34:05;25.52;;;16.63;;
1545;SDS011;766;51.502;9.752;2023-05-02T06:36:34;29.52;;;18.27;;
1545;SDS011;766;51.502;9.752;2023-05-02T06:39:02;27.60;;;17.67;;
1545;SDS011;766;51.502;9.752;2023-05-02T06:41:32;26.23;;;16.52;;
1545;SDS011;766;51.502;9.752;2023-05-02T06:44:00;29.85;;;19.40;;
1545;SDS011;766;51.502;9.752;2023-05-02T06:46:28;27.60;;;17.67;;
1545;SDS011;766;51.502;9.752;2023-05-02T06:49:12;25.00;;;16.83;;
1545;SDS011;766;51.502;9.752;2023-05-02T06:51:40;23.02;;;15.93;;
1545;SDS011;766;51.502;9.752;2023-05-02T06:54:09;24.35;;;15.32;;
1545;SDS011;766;51.502;9.752;2023-05-02T06:56:38;25.25;;;15.38;;
1545;SDS011;766;51.502;9.752;2023-05-02T06:59:07;25.20;;;15.55;;
1545;SDS011;766;51.502;9.752;2023-05-02T07:01:35;20.17;;;14.40;;
1545;SDS011;766;51.502;9.752;2023-05-02T07:04:04;23.05;;;14.35;;
1545;SDS011;766;51.502;9.752;2023-05-02T07:06:32;18.45;;;11.63;;
1545;SDS011;766;51.502;9.752;2023-05-02T07:09:01;17.67;;;11.40;;
1545;SDS011;766;51.502;9.752;2023-05-02T07:11:29;21.88;;;12.90;;
1545;SDS011;766;51.502;9.752;2023-05-02T07:13:59;27.70;;;13.30;;
1545;SDS011;766;51.502;9.752;2023-05-02T07:16:27;19.63;;;12.68;;
1545;SDS011;766;51.502;9.752;2023-05-02T07:18:56;25.23;;;13.23;;
1545;SDS011;766;51.502;9.752;2023-05-02T07:21:24;27.33;;;14.50;;
1545;SDS011;766;51.502;9.752;2023-05-02T07:23:53;24.15;;;13.60;;
1545;SDS011;766;51.502;9.752;2023-05-02T07:26:26;17.50;;;12.15;;
1545;SDS011;766;51.502;9.752;2023-05-02T07:28:55;17.73;;;11.82;;
1545;SDS011;766;51.502;9.752;2023-05-02T07:31:24;16.23;;;10.13;;
1545;SDS011;766;51.502;9.752;2023-05-02T07:33:53;15.20;;;10.00;;
1545;SDS011;766;51.502;9.752;2023-05-02T07:36:25;15.40;;;9.93;;
1545;SDS011;766;51.502;9.752;2023-05-02T07:38:53;13.88;;;9.55;;
1545;SDS011;766;51.502;9.752;2023-05-02T07:41:22;15.82;;;9.68;;
1545;SDS011;766;51.502;9.752;2023-05-02T07:43:50;14.07;;;8.75;;
1545;SDS011;766;51.502;9.752;2023-05-02T07:46:18;14.77;;;9.57;;
1545;SDS011;766;51.502;9.752;2023-05-02T07:48:48;15.65;;;9.20;;
1545;SDS011;766;51.502;9.752;2023-05-02T07:51:19;12.30;;;8.57;;
1545;SDS011;766;51.502;9.752;2023-05-02T07:53:49;14.88;;;8.45;;
1545;SDS011;766;51.502;9.752;2023-05-02T07:56:19;12.18;;;7.78;;
1545;SDS011;766;51.502;9.752;2023-05-02T07:58:47;12.88;;;7.88;;
1545;SDS011;766;51.502;9.752;2023-05-02T08:01:17;12.27;;;8.07;;
1545;SDS011;766;51.502;9.752;2023-05-02T08:03:47;9.55;;;7.05;;
1545;SDS011;766;51.502;9.752;2023-05-02T08:06:16;11.32;;;7.60;;
1545;SDS011;766;51.502;9.752;2023-05-02T08:08:44;12.30;;;7.65;;
1545;SDS011;766;51.502;9.752;2023-05-02T08:11:13;13.20;;;8.23;;
1545;SDS011;766;51.502;9.752;2023-05-02T08:13:41;11.60;;;8.23;;
1545;SDS011;766;51.502;9.752;2023-05-02T08:16:10;11.95;;;7.13;;
1545;SDS011;766;51.502;9.752;2023-05-02T08:18:38;10.75;;;6.57;;
1545;SDS011;766;51.502;9.752;2023-05-02T08:21:08;10.52;;;6.45;;
1545;SDS011;766;51.502;9.752;2023-05-02T08:23:37;7.93;;;4.93;;
1545;SDS011;766;51.502;9.752;2023-05-02T08:26:07;6.93;;;5.05;;
1545;SDS011;766;51.502;9.752;2023-05-02T08:28:36;7.43;;;4.85;;
1545;SDS011;766;51.502;9.752;2023-05-02T08:31:04;10.55;;;4.95;;
1545;SDS011;766;51.502;9.752;2023-05-02T08:33:33;4.60;;;3.42;;
1545;SDS011;766;51.502;9.752;2023-05-02T08:36:10;3.40;;;2.88;;
1545;SDS011;766;51.502;9.752;2023-05-02T08:38:39;3.58;;;2.47;;
1545;SDS011;766;51.502;9.752;2023-05-02T08:41:11;3.83;;;2.45;;
1545;SDS011;766;51.502;9.752;2023-05-02T08:43:40;3.17;;;2.53;;
1545;SDS011;766;51.502;9.752;2023-05-02T08:46:09;3.35;;;2.65;;
1545;SDS011;766;51.502;9.752;2023-05-02T08:48:39;3.92;;;2.60;;
1545;SDS011;766;51.502;9.752;2023-05-02T08:51:11;2.60;;;1.95;;
1545;SDS011;766;51.502;9.752;2023-05-02T08:53:40;4.05;;;1.60;;
1545;SDS011;766;51.502;9.752;2023-05-02T08:56:12;1.60;;;1.40;;
1545;SDS011;766;51.502;9.752;2023-05-02T08:58:41;1.25;;;1.15;;
1545;SDS011;766;51.502;9.752;2023-05-02T09:01:12;1.55;;;1.30;;
1545;SDS011;766;51.502;9.752;2023-05-02T09:03:42;2.50;;;1.15;;
1545;SDS011;766;51.502;9.752;2023-05-02T09:06:13;1.60;;;1.27;;
1545;SDS011;766;51.502;9.752;2023-05-02T09:08:44;2.03;;;1.00;;
1545;SDS011;766;51.502;9.752;2023-05-02T09:11:15;1.23;;;1.10;;
1545;SDS011;766;51.502;9.752;2023-05-02T09:13:44;1.95;;;1.10;;
1545;SDS011;766;51.502;9.752;2023-05-02T09:16:14;1.42;;;1.30;;
1545;SDS011;766;51.502;9.752;2023-05-02T09:18:44;1.77;;;1.35;;
1545;SDS011;766;51.502;9.752;2023-05-02T09:21:15;1.90;;;1.45;;
1545;SDS011;766;51.502;9.752;2023-05-02T09:23:47;1.60;;;1.50;;
1545;SDS011;766;51.502;9.752;2023-05-02T09:26:17;5.57;;;1.92;;
1545;SDS011;766;51.502;9.752;2023-05-02T09:28:47;1.70;;;1.50;;
1545;SDS011;766;51.502;9.752;2023-05-02T09:31:17;2.72;;;1.83;;
1545;SDS011;766;51.502;9.752;2023-05-02T09:34:07;2.40;;;1.92;;
1545;SDS011;766;51.502;9.752;2023-05-02T09:36:42;2.20;;;2.00;;
1545;SDS011;766;51.502;9.752;2023-05-02T09:39:12;2.65;;;2.30;;
1545;SDS011;766;51.502;9.752;2023-05-02T09:41:43;2.70;;;2.50;;
1545;SDS011;766;51.502;9.752;2023-05-02T09:44:13;4.85;;;2.90;;
1545;SDS011;766;51.502;9.752;2023-05-02T09:46:44;4.63;;;2.60;;
1545;SDS011;766;51.502;9.752;2023-05-02T09:49:14;3.97;;;2.72;;
1545;SDS011;766;51.502;9.752;2023-05-02T09:51:46;2.95;;;2.50;;
1545;SDS011;766;51.502;9.752;2023-05-02T09:54:32;3.45;;;3.13;;
1545;SDS011;766;51.502;9.752;2023-05-02T09:57:03;4.90;;;3.58;;
1545;SDS011;766;51.502;9.752;2023-05-02T09:59:32;6.15;;;3.65;;
1545;SDS011;766;51.502;9.752;2023-05-02T10:02:02;5.35;;;3.63;;
1545;SDS011;766;51.502;9.752;2023-05-02T10:04:32;7.25;;;4.20;;
1545;SDS011;766;51.502;9.752;2023-05-02T10:07:02;8.10;;;4.68;;
1545;SDS011;766;51.502;9.752;2023-05-02T10:09:32;5.28;;;4.28;;
1545;SDS011;766;51.502;9.752;2023-05-02T10:12:03;8.18;;;5.25;;
1545;SDS011;766;51.502;9.752;2023-05-02T10:14:34;8.98;;;5.15;;
1545;SDS011;766;51.502;9.752;2023-05-02T10:17:09;8.35;;;5.35;;
1545;SDS011;766;51.502;9.752;2023-05-02T10:19:44;8.25;;;5.20;;
1545;SDS011;766;51.502;9.752;2023-05-02T10:22:21;7.57;;;5.28;;
1545;SDS011;766;51.502;9.752;2023-05-02T10:24:50;8.20;;;5.65;;
1545;SDS011;766;51.502;9.752;2023-05-02T10:27:20;7.25;;;4.55;;
1545;SDS011;766;51.502;9.752;2023-05-02T10:29:49;6.15;;;4.72;;
1545;SDS011;766;51.502;9.752;2023-05-02T10:32:18;5.05;;;3.92;;
1545;SDS011;766;51.502;9.752;2023-05-02T10:34:49;5.68;;;3.70;;
1545;SDS011;766;51.502;9.752;2023-05-02T10:37:19;4.35;;;3.85;;
1545;SDS011;766;51.502;9.752;2023-05-02T10:39:49;6.03;;;4.10;;
1545;SDS011;766;51.502;9.752;2023-05-02T10:42:18;7.53;;;3.65;;
1545;SDS011;766;51.502;9.752;2023-05-02T10:44:47;3.42;;;3.03;;
1545;SDS011;766;51.502;9.752;2023-05-02T10:47:17;6.13;;;3.70;;
1545;SDS011;766;51.502;9.752;2023-05-02T10:49:50;5.55;;;3.53;;
1545;SDS011;766;51.502;9.752;2023-05-02T10:52:29;5.68;;;4.00;;
1545;SDS011;766;51.502;9.752;2023-05-02T10:55:18;6.22;;;4.05;;
1545;SDS011;766;51.502;9.752;2023-05-02T11:00:49;5.82;;;3.90;;
1545;SDS011;766;51.502;9.752;2023-05-02T11:06:21;8.55;;;4.60;;
1545;SDS011;766;51.502;9.752;2023-05-02T11:08:50;6.97;;;4.47;;
1545;SDS011;766;51.502;9.752;2023-05-02T11:11:38;11.15;;;4.45;;
1545;SDS011;766;51.502;9.752;2023-05-02T11:14:08;8.25;;;4.90;;
1545;SDS011;766;51.502;9.752;2023-05-02T11:22:35;9.10;;;4.85;;
1545;SDS011;766;51.502;9.752;2023-05-02T11:25:03;7.50;;;4.90;;
1545;SDS011;766;51.502;9.752;2023-05-02T11:27:37;9.15;;;5.18;;
1545;SDS011;766;51.502;9.752;2023-05-02T11:30:06;7.28;;;5.50;;
1545;SDS011;766;51.502;9.752;2023-05-02T11:35:50;10.43;;;5.10;;
1545;SDS011;766;51.502;9.752;2023-05-02T11:38:19;8.10;;;4.88;;
1545;SDS011;766;51.502;9.752;2023-05-02T11:40:52;9.10;;;4.95;;
1545;SDS011;766;51.502;9.752;2023-05-02T11:43:26;15.48;;;5.88;;
1545;SDS011;766;51.502;9.752;2023-05-02T11:45:58;11.27;;;5.55;;
1545;SDS011;766;51.502;9.752;2023-05-02T11:48:28;8.20;;;5.32;;
1545;SDS011;766;51.502;9.752;2023-05-02T11:50:58;12.63;;;4.97;;
1545;SDS011;766;51.502;9.752;2023-05-02T11:53:31;6.35;;;4.40;;
1545;SDS011;766;51.502;9.752;2023-05-02T11:56:00;9.45;;;4.53;;
1545;SDS011;766;51.502;9.752;2023-05-02T11:58:32;10.90;;;4.65;;
1545;SDS011;766;51.502;9.752;2023-05-02T12:01:10;14.68;;;4.88;;
1545;SDS011;766;51.502;9.752;2023-05-02T12:03:39;10.18;;;4.82;;
1545;SDS011;766;51.502;9.752;2023-05-02T12:06:09;11.40;;;4.47;;
1545;SDS011;766;51.502;9.752;2023-05-02T12:08:39;10.32;;;4.38;;
1545;SDS011;766;51.502;9.752;2023-05-02T12:11:11;12.82;;;5.05;;
1545;SDS011;766;51.502;9.752;2023-05-02T12:13:46;11.90;;;5.13;;
1545;SDS011;766;51.502;9.752;2023-05-02T12:16:16;10.27;;;4.13;;
1545;SDS011;766;51.502;9.752;2023-05-02T12:18:45;11.48;;;4.57;;
1545;SDS011;766;51.502;9.752;2023-05-02T12:21:14;9.63;;;3.60;;
1545;SDS011;766;51.502;9.752;2023-05-02T12:23:44;10.23;;;4.00;;
1545;SDS011;766;51.502;9.752;2023-05-02T12:26:16;13.95;;;4.22;;
1545;SDS011;766;51.502;9.752;2023-05-02T12:28:50;9.68;;;4.03;;
1545;SDS011;766;51.502;9.752;2023-05-02T12:31:20;8.80;;;3.70;;
1545;SDS011;766;51.502;9.752;2023-05-02T12:33:49;10.40;;;4.75;;
1545;SDS011;766;51.502;9.752;2023-05-02T12:36:20;12.75;;;4.10;;
1545;SDS011;766;51.502;9.752;2023-05-02T12:38:49;11.30;;;4.65;;
1545;SDS011;766;51.502;9.752;2023-05-02T12:41:29;9.00;;;4.20;;
1545;SDS011;766;51.502;9.752;2023-05-02T12:44:00;13.10;;;4.35;;
1545;SDS011;766;51.502;9.752;2023-05-02T12:46:28;15.98;;;4.82;;
1545;SDS011;766;51.502;9.752;2023-05-02T12:49:01;16.65;;;4.90;;
1545;SDS011;766;51.502;9.752;2023-05-02T12:51:31;15.48;;;4.82;;
1545;SDS011;766;51.502;9.752;2023-05-02T12:54:00;11.32;;;4.93;;
1545;SDS011;766;51.502;9.752;2023-05-02T12:56:29;11.52;;;4.47;;
1545;SDS011;766;51.502;9.752;2023-05-02T12:59:00;15.25;;;4.90;;
1545;SDS011;766;51.502;9.752;2023-05-02T13:01:31;19.45;;;5.28;;
1545;SDS011;766;51.502;9.752;2023-05-02T13:04:00;16.00;;;5.13;;
1545;SDS011;766;51.502;9.752;2023-05-02T13:06:29;11.48;;;3.97;;
1545;SDS011;766;51.502;9.752;2023-05-02T13:08:58;10.98;;;4.18;;
1545;SDS011;766;51.502;9.752;2023-05-02T13:11:27;8.73;;;3.90;;
1545;SDS011;766;51.502;9.752;2023-05-02T13:13:55;12.38;;;4.50;;
1545;SDS011;766;51.502;9.752;2023-05-02T13:16:27;11.25;;;3.78;;
1545;SDS011;766;51.502;9.752;2023-05-02T13:18:57;16.67;;;4.57;;
1545;SDS011;766;51.502;9.752;2023-05-02T13:21:25;11.75;;;4.35;;
1545;SDS011;766;51.502;9.752;2023-05-02T13:23:53;12.82;;;4.88;;
1545;SDS011;766;51.502;9.752;2023-05-02T13:26:24;9.68;;;4.43;;
1545;SDS011;766;51.502;9.752;2023-05-02T13:28:52;11.15;;;4.80;;
1545;SDS011;766;51.502;9.752;2023-05-02T13:31:21;13.07;;;5.32;;
1545;SDS011;766;51.502;9.752;2023-05-02T13:33:51;16.90;;;4.95;;
1545;SDS011;766;51.502;9.752;2023-05-02T13:36:19;14.75;;;4.72;;
1545;SDS011;766;51.502;9.752;2023-05-02T13:38:49;12.13;;;4.25;;
1545;SDS011;766;51.502;9.752;2023-05-02T13:41:18;14.95;;;4.85;;
1545;SDS011;766;51.502;9.752;2023-05-02T13:43:47;14.98;;;4.70;;
1545;SDS011;766;51.502;9.752;2023-05-02T13:46:15;16.60;;;4.70;;
1545;SDS011;766;51.502;9.752;2023-05-02T13:48:43;13.65;;;5.00;;
1545;SDS011;766;51.502;9.752;2023-05-02T13:51:13;14.38;;;4.78;;
1545;SDS011;766;51.502;9.752;2023-05-02T13:53:42;11.77;;;4.22;;
1545;SDS011;766;51.502;9.752;2023-05-02T13:56:10;10.07;;;4.63;;
1545;SDS011;766;51.502;9.752;2023-05-02T13:58:38;8.98;;;3.92;;
1545;SDS011;766;51.502;9.752;2023-05-02T14:01:07;8.85;;;3.60;;
1545;SDS011;766;51.502;9.752;2023-05-02T14:03:36;9.98;;;4.00;;
1545;SDS011;766;51.502;9.752;2023-05-02T14:06:04;16.33;;;4.70;;
1545;SDS011;766;51.502;9.752;2023-05-02T14:08:34;12.38;;;4.13;;
1545;SDS011;766;51.502;9.752;2023-05-02T14:11:03;11.93;;;4.53;;
1545;SDS011;766;51.502;9.752;2023-05-02T14:13:32;8.68;;;4.90;;
1545;SDS011;766;51.502;9.752;2023-05-02T14:16:01;11.75;;;4.85;;
1545;SDS011;766;51.502;9.752;2023-05-02T14:18:29;15.43;;;5.25;;
1545;SDS011;766;51.502;9.752;2023-05-02T14:20:57;8.40;;;4.78;;
1545;SDS011;766;51.502;9.752;2023-05-02T14:23:26;16.30;;;5.85;;
1545;SDS011;766;51.502;9.752;2023-05-02T14:25:56;10.38;;;4.53;;
1545;SDS011;766;51.502;9.752;2023-05-02T14:28:24;10.02;;;3.95;;
1545;SDS011;766;51.502;9.752;2023-05-02T14:30:53;9.45;;;4.63;;
1545;SDS011;766;51.502;9.752;2023-05-02T14:33:21;11.77;;;4.30;;
1545;SDS011;766;51.502;9.752;2023-05-02T14:35:49;9.75;;;4.00;;
1545;SDS011;766;51.502;9.752;2023-05-02T14:38:18;9.25;;;3.88;;
1545;SDS011;766;51.502;9.752;2023-05-02T14:40:47;9.05;;;3.22;;
1545;SDS011;766;51.502;9.752;2023-05-02T14:43:16;9.68;;;4.03;;
1545;SDS011;766;51.502;9.752;2023-05-02T14:45:45;9.98;;;3.40;;
1545;SDS011;766;51.502;9.752;2023-05-02T14:48:13;8.10;;;3.50;;
1545;SDS011;766;51.502;9.752;2023-05-02T14:50:43;10.02;;;4.13;;
1545;SDS011;766;51.502;9.752;2023-05-02T14:53:11;10.05;;;3.50;;
1545;SDS011;766;51.502;9.752;2023-05-02T14:55:39;7.00;;;3.40;;
1545;SDS011;766;51.502;9.752;2023-05-02T14:58:08;11.82;;;4.78;;
1545;SDS011;766;51.502;9.752;2023-05-02T15:00:41;6.30;;;3.20;;
1545;SDS011;766;51.502;9.752;2023-05-02T15:03:09;9.02;;;4.20;;
1545;SDS011;766;51.502;9.752;2023-05-02T15:05:38;11.27;;;4.30;;
1545;SDS011;766;51.502;9.752;2023-05-02T15:08:07;9.00;;;3.78;;
1545;SDS011;766;51.502;9.752;2023-05-02T15:10:35;9.70;;;3.85;;
1545;SDS011;766;51.502;9.752;2023-05-02T15:13:04;8.70;;;3.80;;
1545;SDS011;766;51.502;9.752;2023-05-02T15:15:34;8.52;;;3.28;;
1545;SDS011;766;51.502;9.752;2023-05-02T15:18:04;10.45;;;3.33;;
1545;SDS011;766;51.502;9.752;2023-05-02T15:20:33;7.88;;;3.47;;
1545;SDS011;766;51.502;9.752;2023-05-02T15:23:02;7.30;;;3.00;;
1545;SDS011;766;51.502;9.752;2023-05-02T15:25:30;8.10;;;2.53;;
1545;SDS011;766;51.502;9.752;2023-05-02T15:27:59;10.73;;;3.05;;
1545;SDS011;766;51.502;9.752;2023-05-02T15:30:28;4.60;;;2.55;;
1545;SDS011;766;51.502;9.752;2023-05-02T15:32:57;6.22;;;3.13;;
1545;SDS011;766;51.502;9.752;2023-05-02T15:35:26;5.75;;;2.97;;
1545;SDS011;766;51.502;9.752;2023-05-02T15:37:55;9.85;;;3.40;;
1545;SDS011;766;51.502;9.752;2023-05-02T15:40:23;6.68;;;3.03;;
1545;SDS011;766;51.502;9.752;2023-05-02T15:42:53;7.72;;;3.42;;
1545;SDS011;766;51.502;9.752;2023-05-02T15:45:22;7.68;;;3.15;;
1545;SDS011;766;51.502;9.752;2023-05-02T15:47:51;11.20;;;2.92;;
1545;SDS011;766;51.502;9.752;2023-05-02T15:50:19;10.45;;;2.85;;
1545;SDS011;766;51.502;9.752;2023-05-02T15:52:49;7.88;;;3.33;;
1545;SDS011;766;51.502;9.752;2023-05-02T15:55:17;6.43;;;2.92;;